createdAt,value
2022-10-02T00:02:11.745Z,13.55
2022-10-02T00:05:11.261Z,14.57
2022-10-02T00:10:14.843Z,13.15
2022-10-02T00:12:49.744Z,13.13
2022-10-02T00:15:21.279Z,14.65
2022-10-02T00:17:50.582Z,13.38
2022-10-02T00:20:25.187Z,13.93
2022-10-02T00:22:59.023Z,12.27
2022-10-02T00:25:45.648Z,11.70
2022-10-02T00:28:20.589Z,12.53
2022-10-02T00:30:53.887Z,13.45
2022-10-02T00:33:29.502Z,11.48
2022-10-02T00:36:04.948Z,11.57
2022-10-02T00:38:54.246Z,11.55
2022-10-02T00:41:45.885Z,10.70
2022-10-02T00:44:34.294Z,12.40
2022-10-02T00:47:07.159Z,12.32
2022-10-02T00:49:53.411Z,11.27
2022-10-02T00:52:25.385Z,10.85
2022-10-02T00:55:13.538Z,11.20
2022-10-02T00:57:45.189Z,11.20
2022-10-02T01:00:24.671Z,11.02
2022-10-02T01:03:06.402Z,10.70
2022-10-02T01:05:41.490Z,10.55
2022-10-02T01:08:10.602Z,11.80
2022-10-02T01:10:39.984Z,13.20
2022-10-02T01:13:11.411Z,10.88
2022-10-02T01:15:53.318Z,10.45
2022-10-02T01:18:21.800Z,10.90
2022-10-02T01:20:53.851Z,10.32
2022-10-02T01:23:39.324Z,10.98
2022-10-02T01:26:09.986Z,11.15
2022-10-02T01:28:40.726Z,10.38
2022-10-02T01:31:11.295Z,10.85
2022-10-02T01:33:43.211Z,11.30
2022-10-02T01:36:12.572Z,10.57
2022-10-02T01:38:42.273Z,10.43
2022-10-02T01:41:11.528Z,11.10
2022-10-02T01:43:47.725Z,11.27
2022-10-02T01:46:23.744Z,11.25
2022-10-02T01:49:06.389Z,11.77
2022-10-02T01:51:46.221Z,10.77
2022-10-02T01:54:27.474Z,10.77
2022-10-02T01:57:02.990Z,11.20
2022-10-02T01:59:43.516Z,11.63
2022-10-02T02:02:12.772Z,10.75
2022-10-02T02:04:46.514Z,10.25
2022-10-02T02:07:19.640Z,10.60
2022-10-02T02:09:52.826Z,11.02
2022-10-02T02:12:25.635Z,11.00
2022-10-02T02:15:01.011Z,11.23
2022-10-02T02:17:55.896Z,11.00
2022-10-02T02:20:36.135Z,10.48
2022-10-02T02:23:11.720Z,10.02
2022-10-02T02:25:53.035Z,10.15
2022-10-02T02:28:24.517Z,9.25
2022-10-02T02:30:55.650Z,9.27
2022-10-02T02:33:28.820Z,9.80
2022-10-02T02:36:01.627Z,10.43
2022-10-02T02:38:34.443Z,10.60
2022-10-02T02:41:05.824Z,10.23
2022-10-02T02:43:55.945Z,9.30
2022-10-02T02:46:34.989Z,9.45
2022-10-02T02:49:07.826Z,9.88
2022-10-02T02:51:38.799Z,9.27
2022-10-02T02:54:15.867Z,10.15
2022-10-02T02:56:47.800Z,9.07
2022-10-02T02:59:28.242Z,9.30
2022-10-02T03:02:05.170Z,9.73
2022-10-02T03:04:34.785Z,9.10
2022-10-02T03:07:06.408Z,9.50
2022-10-02T03:09:35.633Z,8.85
2022-10-02T03:12:16.160Z,9.15
2022-10-02T03:14:48.716Z,9.38
2022-10-02T03:17:18.201Z,10.20
2022-10-02T03:19:54.490Z,8.88
2022-10-02T03:22:31.168Z,9.02
2022-10-02T03:24:59.434Z,9.55
2022-10-02T03:27:39.198Z,8.85
2022-10-02T03:30:16.309Z,8.88
2022-10-02T03:35:16.224Z,7.70
2022-10-02T03:38:06.337Z,8.60
2022-10-02T03:40:35.809Z,9.25
2022-10-02T03:43:06.336Z,8.02
2022-10-02T03:45:51.934Z,8.25
2022-10-02T03:48:24.660Z,8.43
2022-10-02T03:50:54.064Z,7.95
2022-10-02T03:53:30.621Z,7.95
2022-10-02T03:58:32.055Z,8.07
2022-10-02T04:01:00.295Z,6.95
2022-10-02T04:04:00.972Z,6.97
2022-10-02T04:06:48.820Z,7.60
2022-10-02T04:09:21.638Z,7.72
2022-10-02T04:11:59.437Z,7.88
2022-10-02T04:14:34.165Z,8.50
2022-10-02T04:19:43.121Z,7.95
2022-10-02T04:22:15.387Z,8.02
2022-10-02T04:24:50.563Z,8.70
2022-10-02T04:27:22.685Z,8.20
2022-10-02T04:29:54.211Z,7.30
2022-10-02T04:32:36.685Z,7.30
2022-10-02T04:35:15.928Z,7.07
2022-10-02T04:38:18.408Z,6.88
2022-10-02T04:40:50.613Z,7.68
2022-10-02T04:43:25.453Z,7.40
2022-10-02T04:46:03.272Z,7.35
2022-10-02T04:48:44.212Z,7.47
2022-10-02T04:51:47.081Z,7.18
2022-10-02T04:54:20.428Z,7.00
2022-10-02T04:56:57.481Z,6.75
2022-10-02T04:59:45.396Z,6.93
2022-10-02T05:02:14.615Z,6.28
2022-10-02T05:04:47.937Z,6.63
2022-10-02T05:07:27.301Z,6.25
2022-10-02T05:10:19.907Z,6.25
2022-10-02T05:12:51.072Z,5.53
2022-10-02T05:15:32.544Z,5.10
2022-10-02T05:18:17.128Z,5.60
2022-10-02T05:21:01.895Z,5.38
2022-10-02T05:23:54.354Z,5.10
2022-10-02T05:26:43.237Z,5.65
2022-10-02T05:29:42.310Z,7.10
2022-10-02T05:32:12.655Z,7.00
2022-10-02T05:34:47.182Z,7.10
2022-10-02T05:37:26.677Z,6.47
2022-10-02T05:40:15.557Z,7.18
2022-10-02T05:42:59.333Z,7.30
2022-10-02T05:45:42.531Z,7.20
2022-10-02T05:48:16.369Z,7.15
2022-10-02T05:50:50.351Z,6.80
2022-10-02T05:53:30.977Z,6.60
2022-10-02T05:56:01.596Z,7.10
2022-10-02T05:58:42.570Z,7.25
2022-10-02T06:01:15.696Z,6.72
2022-10-02T06:03:51.415Z,6.95
2022-10-02T06:06:39.699Z,7.25
2022-10-02T06:09:17.727Z,7.30
2022-10-02T06:11:53.301Z,7.22
2022-10-02T06:14:47.346Z,6.30
2022-10-02T06:20:13.049Z,6.90
2022-10-02T06:23:18.571Z,6.57
2022-10-02T06:25:52.503Z,9.02
2022-10-02T06:28:42.431Z,6.75
2022-10-02T06:31:36.881Z,6.07
2022-10-02T06:34:11.983Z,7.15
2022-10-02T06:36:50.188Z,7.03
2022-10-02T06:39:46.151Z,7.00
2022-10-02T06:42:49.461Z,6.35
2022-10-02T06:45:29.814Z,6.25
2022-10-02T06:48:45.032Z,6.70
2022-10-02T06:51:24.065Z,6.40
2022-10-02T06:54:37.836Z,5.18
2022-10-02T06:57:06.563Z,5.13
2022-10-02T06:59:55.309Z,5.93
2022-10-02T07:02:40.369Z,6.63
2022-10-02T07:05:15.772Z,5.30
2022-10-02T07:08:00.140Z,6.47
2022-10-02T07:10:36.072Z,4.65
2022-10-02T07:13:15.820Z,4.85
2022-10-02T07:16:03.427Z,4.70
2022-10-02T07:18:47.534Z,4.78
2022-10-02T07:21:30.693Z,5.18
2022-10-02T07:24:15.910Z,5.40
2022-10-02T07:27:16.449Z,5.50
2022-10-02T07:29:52.664Z,5.68
2022-10-02T07:32:32.039Z,4.55
2022-10-02T07:35:14.594Z,4.72
2022-10-02T07:38:02.863Z,6.72
2022-10-02T07:40:44.731Z,6.40
2022-10-02T07:43:41.509Z,5.10
2022-10-02T07:46:20.398Z,6.43
2022-10-02T07:48:50.287Z,6.45
2022-10-02T07:51:57.389Z,12.18
2022-10-02T07:54:57.039Z,7.82
2022-10-02T07:57:42.508Z,11.40
2022-10-02T08:00:20.828Z,6.85
2022-10-02T08:02:53.437Z,27.55
2022-10-02T08:05:31.458Z,10.15
2022-10-02T08:08:18.528Z,8.68
2022-10-02T08:10:50.295Z,15.45
2022-10-02T08:13:35.282Z,6.40
2022-10-02T08:16:18.556Z,5.25
2022-10-02T08:18:55.312Z,5.00
2022-10-02T08:21:26.032Z,4.30
2022-10-02T08:23:55.896Z,3.88
2022-10-02T08:26:35.681Z,4.00
2022-10-02T08:29:33.012Z,4.18
2022-10-02T08:32:03.866Z,3.22
2022-10-02T08:34:37.097Z,3.25
2022-10-02T08:37:10.652Z,2.75
2022-10-02T08:39:59.165Z,2.67
2022-10-02T08:42:49.251Z,2.60
2022-10-02T08:45:19.020Z,2.40
2022-10-02T08:47:57.743Z,2.42
2022-10-02T08:50:44.245Z,2.22
2022-10-02T08:53:22.727Z,4.40
2022-10-02T08:56:10.913Z,3.75
2022-10-02T08:58:39.171Z,4.20
2022-10-02T09:01:29.120Z,2.80
2022-10-02T09:04:16.805Z,2.50
2022-10-02T09:07:04.564Z,2.10
2022-10-02T09:09:47.249Z,2.30
2022-10-02T09:12:16.452Z,3.08
2022-10-02T09:15:09.558Z,6.60
2022-10-02T09:17:47.387Z,3.08
2022-10-02T09:20:19.924Z,3.70
2022-10-02T09:28:25.828Z,3.10
2022-10-02T09:31:13.074Z,3.75
2022-10-02T09:34:00.128Z,3.83
2022-10-02T09:36:46.211Z,3.58
2022-10-02T09:39:34.154Z,4.85
2022-10-02T09:42:28.429Z,2.42
2022-10-02T09:45:40.327Z,2.25
2022-10-02T09:48:45.568Z,2.80
2022-10-02T09:51:53.487Z,2.53
2022-10-02T09:54:57.570Z,2.38
2022-10-02T09:57:43.118Z,1.80
2022-10-02T10:00:16.424Z,1.83
2022-10-02T10:03:13.274Z,2.03
2022-10-02T10:06:11.642Z,2.13
2022-10-02T10:08:55.049Z,2.00
2022-10-02T10:11:37.555Z,1.98
2022-10-02T10:14:31.179Z,2.63
2022-10-02T10:17:11.645Z,2.22
2022-10-02T10:20:07.690Z,3.22
2022-10-02T10:22:52.968Z,2.20
2022-10-02T10:25:44.658Z,3.08
2022-10-02T10:28:13.463Z,2.50
2022-10-02T10:30:57.686Z,2.65
2022-10-02T10:34:02.979Z,3.55
2022-10-02T10:37:08.459Z,2.25
2022-10-02T10:39:52.667Z,1.90
2022-10-02T10:42:28.085Z,1.90
2022-10-02T10:45:18.405Z,2.40
2022-10-02T10:47:59.658Z,2.03
2022-10-02T10:50:38.299Z,1.63
2022-10-02T10:53:28.974Z,3.40
2022-10-02T10:56:12.927Z,8.60
2022-10-02T10:59:02.611Z,8.35
2022-10-02T11:02:06.385Z,44.47
2022-10-02T11:04:52.341Z,16.48
2022-10-02T11:07:52.506Z,44.70
2022-10-02T11:10:45.602Z,52.95
2022-10-02T11:13:42.716Z,9.65
2022-10-02T11:16:19.119Z,18.83
2022-10-02T11:22:18.090Z,9.57
2022-10-02T11:24:54.273Z,5.35
2022-10-02T11:28:05.940Z,8.68
2022-10-02T11:30:41.431Z,3.83
2022-10-02T11:33:22.044Z,10.38
2022-10-02T11:35:56.620Z,9.10
2022-10-02T11:38:39.483Z,7.15
2022-10-02T11:41:34.396Z,13.15
2022-10-02T11:44:24.883Z,10.80
2022-10-02T11:47:15.460Z,9.93
2022-10-02T11:50:01.820Z,5.75
2022-10-02T11:52:50.572Z,7.50
2022-10-02T11:55:23.259Z,6.93
2022-10-02T11:58:11.396Z,5.93
2022-10-02T12:00:41.079Z,11.55
2022-10-02T12:03:15.844Z,16.80
2022-10-02T12:05:57.794Z,17.75
2022-10-02T12:08:34.475Z,4.70
2022-10-02T12:11:14.458Z,8.60
2022-10-02T12:14:01.189Z,5.20
2022-10-02T12:16:45.935Z,7.13
2022-10-02T12:19:40.184Z,10.73
2022-10-02T12:22:41.877Z,4.95
2022-10-02T12:25:47.559Z,3.65
2022-10-02T12:28:31.674Z,3.83
2022-10-02T12:31:31.439Z,2.83
2022-10-02T12:34:08.427Z,3.35
2022-10-02T12:36:43.880Z,7.95
2022-10-02T12:39:27.896Z,4.15
2022-10-02T12:42:27.112Z,6.40
2022-10-02T12:45:15.334Z,4.90
2022-10-02T12:48:19.131Z,2.87
2022-10-02T12:51:06.130Z,9.95
2022-10-02T12:54:07.409Z,5.30
2022-10-02T12:56:46.318Z,5.28
2022-10-02T13:02:05.801Z,13.88
2022-10-02T13:04:38.465Z,12.32
2022-10-02T13:07:28.744Z,4.80
2022-10-02T13:09:57.997Z,2.90
2022-10-02T13:19:47.489Z,3.17
2022-10-02T13:22:35.675Z,4.25
2022-10-02T13:25:23.615Z,3.20
2022-10-02T13:28:01.107Z,2.60
2022-10-02T13:30:37.053Z,4.65
2022-10-02T13:33:22.260Z,2.10
2022-10-02T13:36:36.866Z,2.25
2022-10-02T13:39:10.110Z,4.45
2022-10-02T13:41:48.054Z,7.50
2022-10-02T13:44:40.452Z,4.38
2022-10-02T13:47:16.566Z,4.65
2022-10-02T13:50:12.169Z,4.68
2022-10-02T13:53:25.122Z,3.20
2022-10-02T13:56:05.795Z,2.80
2022-10-02T13:59:17.272Z,3.08
2022-10-02T14:02:05.665Z,5.65
2022-10-02T14:04:46.785Z,5.47
2022-10-02T14:07:55.564Z,6.75
2022-10-02T14:10:44.334Z,5.00
2022-10-02T14:13:19.745Z,5.72
2022-10-02T14:18:51.285Z,3.22
2022-10-02T14:21:36.337Z,4.10
2022-10-02T14:24:09.666Z,3.97
2022-10-02T14:26:52.719Z,3.70
2022-10-02T14:29:48.127Z,3.55
2022-10-02T14:32:26.497Z,4.18
2022-10-02T14:35:12.238Z,2.47
2022-10-02T14:37:56.491Z,2.53
2022-10-02T14:40:38.863Z,2.22
2022-10-02T14:43:08.587Z,1.85
2022-10-02T14:45:56.859Z,2.47
2022-10-02T14:48:43.598Z,2.42
2022-10-02T14:51:44.214Z,3.58
2022-10-02T14:54:35.604Z,2.28
2022-10-02T14:57:33.720Z,1.83
2022-10-02T15:00:25.231Z,2.05
2022-10-02T15:03:34.036Z,2.22
2022-10-02T15:06:36.697Z,2.92
2022-10-02T15:09:24.277Z,2.70
2022-10-02T15:12:08.399Z,2.38
2022-10-02T15:15:07.627Z,2.28
2022-10-02T15:18:10.149Z,2.15
2022-10-02T15:21:01.047Z,2.63
2022-10-02T15:23:50.904Z,2.50
2022-10-02T15:26:44.029Z,7.50
2022-10-02T15:29:32.709Z,8.40
2022-10-02T15:32:11.471Z,9.23
2022-10-02T15:35:05.983Z,8.95
2022-10-02T15:37:48.542Z,9.85
2022-10-02T15:40:24.611Z,4.57
2022-10-02T15:43:20.265Z,5.07
2022-10-02T15:45:57.913Z,8.55
2022-10-02T15:48:48.987Z,9.55
2022-10-02T15:51:32.360Z,12.23
2022-10-02T15:54:21.310Z,11.02
2022-10-02T15:56:56.537Z,13.95
2022-10-02T15:59:32.541Z,16.23
2022-10-02T16:02:03.452Z,12.30
2022-10-02T16:04:40.823Z,13.13
2022-10-02T16:07:22.335Z,14.35
2022-10-02T16:10:00.253Z,11.57
2022-10-02T16:12:38.261Z,12.55
2022-10-02T16:15:25.633Z,15.27
2022-10-02T16:17:54.506Z,19.00
2022-10-02T16:20:38.666Z,28.83
2022-10-02T16:23:31.657Z,36.38
2022-10-02T16:26:02.130Z,33.53
2022-10-02T16:28:58.539Z,27.25
2022-10-02T16:31:55.267Z,23.95
2022-10-02T16:34:32.707Z,24.38
2022-10-02T16:37:05.988Z,25.85
2022-10-02T16:39:43.823Z,26.55
2022-10-02T16:42:30.713Z,30.95
2022-10-02T16:45:08.138Z,26.15
2022-10-02T16:47:56.629Z,27.48
2022-10-02T16:50:46.205Z,26.45
2022-10-02T16:53:23.984Z,19.60
2022-10-02T16:55:59.667Z,26.90
2022-10-02T16:58:50.142Z,23.65
2022-10-02T17:01:25.154Z,26.77
2022-10-02T17:04:08.182Z,31.90
2022-10-02T17:06:43.508Z,12.80
2022-10-02T17:09:18.514Z,10.80
2022-10-02T17:12:05.968Z,12.63
2022-10-02T17:14:46.686Z,53.53
2022-10-02T17:17:24.556Z,18.80
2022-10-02T17:20:14.291Z,36.47
2022-10-02T17:22:54.022Z,12.68
2022-10-02T17:25:47.694Z,3.83
2022-10-02T17:28:47.467Z,12.55
2022-10-02T17:31:28.404Z,16.23
2022-10-02T17:36:54.019Z,38.75
2022-10-02T17:39:44.247Z,62.97
2022-10-02T17:42:34.902Z,59.80
2022-10-02T17:45:30.728Z,52.72
2022-10-02T17:51:40.476Z,30.95
2022-10-02T17:54:48.918Z,23.67
2022-10-02T17:58:01.802Z,13.32
2022-10-02T18:04:50.724Z,13.57
2022-10-02T18:08:00.712Z,10.55
2022-10-02T18:10:52.052Z,11.32
2022-10-02T18:13:42.952Z,15.60
2022-10-02T18:16:27.508Z,20.92
2022-10-02T18:19:16.298Z,133.45
2022-10-02T18:21:48.101Z,23.48
2022-10-02T18:24:35.565Z,62.55
2022-10-02T18:27:23.655Z,64.00
2022-10-02T18:30:00.683Z,89.25
2022-10-02T18:32:36.636Z,127.38
2022-10-02T18:38:57.607Z,42.70
2022-10-02T18:41:30.943Z,10.50
2022-10-02T18:49:04.650Z,5.80
2022-10-02T18:51:33.968Z,5.60
2022-10-02T18:54:35.400Z,5.68
2022-10-02T18:57:29.974Z,21.33
2022-10-02T19:03:22.047Z,9.63
2022-10-02T19:09:47.848Z,7.05
2022-10-02T19:12:24.437Z,17.85
2022-10-02T19:14:56.263Z,8.30
2022-10-02T19:17:31.817Z,5.43
2022-10-02T19:20:25.050Z,20.45
2022-10-02T19:23:00.334Z,33.38
2022-10-02T19:25:30.558Z,33.63
2022-10-02T19:28:16.156Z,9.65
2022-10-02T19:30:52.646Z,21.80
2022-10-02T19:33:50.181Z,79.20
2022-10-02T19:36:28.531Z,16.58
2022-10-02T19:39:04.155Z,31.38
2022-10-02T19:41:39.054Z,8.48
2022-10-02T19:44:37.897Z,42.45
2022-10-02T19:47:17.689Z,9.77
2022-10-02T19:49:49.830Z,7.65
2022-10-02T19:52:35.885Z,9.02
2022-10-02T19:55:26.615Z,33.43
2022-10-02T19:58:06.750Z,11.55
2022-10-02T20:00:39.047Z,9.90
2022-10-02T20:03:12.139Z,11.25
2022-10-02T20:05:42.092Z,35.85
2022-10-02T20:08:40.049Z,50.20
2022-10-02T20:11:25.670Z,44.25
2022-10-02T20:14:00.329Z,102.40
2022-10-02T20:16:49.967Z,35.15
2022-10-02T20:19:29.481Z,33.15
2022-10-02T20:22:02.133Z,19.40
2022-10-02T20:24:31.533Z,16.48
2022-10-02T20:27:08.205Z,7.20
2022-10-02T20:29:46.554Z,10.30
2022-10-02T20:32:20.594Z,10.07
2022-10-02T20:35:03.657Z,13.95
2022-10-02T20:37:35.022Z,5.55
2022-10-02T20:40:09.605Z,10.05
2022-10-02T20:42:59.734Z,11.15
2022-10-02T20:45:35.923Z,5.55
2022-10-02T20:48:14.247Z,5.95
2022-10-02T20:50:44.977Z,8.75
2022-10-02T20:53:19.901Z,5.22
2022-10-02T20:56:08.768Z,4.82
2022-10-02T20:58:57.279Z,6.90
2022-10-02T21:01:37.776Z,11.95
2022-10-02T21:04:26.969Z,6.53
2022-10-02T21:07:15.502Z,4.35
2022-10-02T21:10:09.051Z,3.97
2022-10-02T21:13:00.243Z,4.43
2022-10-02T21:15:46.936Z,5.00
2022-10-02T21:18:25.347Z,4.40
2022-10-02T21:20:55.755Z,4.85
2022-10-02T21:23:29.452Z,5.65
2022-10-02T21:26:16.974Z,5.32
2022-10-02T21:29:16.300Z,5.47
2022-10-02T21:32:04.044Z,4.47
2022-10-02T21:34:51.507Z,5.03
2022-10-02T21:37:44.840Z,5.88
2022-10-02T21:40:30.035Z,7.63
2022-10-02T21:43:24.311Z,4.70
2022-10-02T21:46:08.686Z,6.28
2022-10-02T21:48:39.942Z,6.97
2022-10-02T21:51:33.803Z,5.85
2022-10-02T21:54:06.252Z,6.85
2022-10-02T21:56:39.031Z,13.80
2022-10-02T21:59:14.309Z,7.35
2022-10-02T22:02:04.202Z,21.80
2022-10-02T22:04:57.705Z,10.13
2022-10-02T22:07:41.285Z,16.70
2022-10-02T22:10:30.889Z,5.75
2022-10-02T22:13:10.461Z,18.38
2022-10-02T22:15:45.162Z,18.20
2022-10-02T22:18:25.834Z,10.95
2022-10-02T22:21:12.079Z,23.02
2022-10-02T22:23:59.863Z,5.30
2022-10-02T22:26:56.323Z,5.80
2022-10-02T22:29:40.579Z,5.20
2022-10-02T22:32:46.439Z,6.22
2022-10-02T22:35:25.834Z,5.53
2022-10-02T22:38:02.281Z,4.90
2022-10-02T22:43:02.697Z,4.97
2022-10-02T22:45:49.359Z,6.70
2022-10-02T22:48:34.076Z,5.28
2022-10-02T22:51:12.950Z,6.30
2022-10-02T22:53:52.220Z,18.55
2022-10-02T22:56:39.399Z,5.88
2022-10-02T22:59:21.330Z,10.50
2022-10-02T23:01:55.584Z,6.32
2022-10-02T23:04:29.070Z,5.82
2022-10-02T23:07:05.134Z,4.75
2022-10-02T23:10:00.863Z,10.48
2022-10-02T23:12:40.036Z,4.65
2022-10-02T23:15:27.382Z,4.57
2022-10-02T23:18:16.724Z,4.10
2022-10-02T23:20:52.135Z,14.40
2022-10-02T23:23:51.015Z,7.15
2022-10-02T23:26:41.487Z,4.82
2022-10-02T23:29:21.943Z,4.50
2022-10-02T23:31:57.934Z,6.95
2022-10-02T23:34:51.140Z,4.40
2022-10-02T23:37:28.966Z,9.38
2022-10-02T23:40:29.096Z,5.32
2022-10-02T23:43:03.692Z,4.68
2022-10-02T23:45:40.372Z,2.85
2022-10-02T23:48:13.932Z,4.47
2022-10-02T23:50:50.290Z,5.20
2022-10-02T23:53:44.966Z,4.57
2022-10-02T23:56:26.573Z,6.85
2022-10-02T23:59:20.326Z,2.90
